Time;durP1;ratioP1;P1;durP2;ratioP2;P2;SDS_P1;SDS_P2;PMS_P1;PMS_P2;Temp;Humidity;BMP_temperature;BMP_pressure;BME280_temperature;BME280_humidity;BME280_pressure;Samples;Min_cycle;Max_cycle;Signal;HPM_P1;HPM_P2
2020/12/07 00:00:39;;;;;;;47.73;26.50;;;4.20;99.90;;;;;;5038316;28;20168;-55
2020/12/07 00:03:05;;;;;;;45.53;25.60;;;4.30;99.90;;;;;;5037123;28;20237;-54
2020/12/07 00:05:31;;;;;;;45.10;25.77;;;4.50;99.90;;;;;;5036636;28;20266;-53
2020/12/07 00:07:57;;;;;;;47.43;26.40;;;4.70;99.90;;;;;;5035932;28;20206;-56
2020/12/07 00:10:23;;;;;;;42.90;24.67;;;4.70;99.90;;;;;;5037634;28;20168;-58
2020/12/07 00:12:49;;;;;;;50.50;26.57;;;4.90;99.90;;;;;;5036980;28;20202;-55
2020/12/07 00:15:15;;;;;;;46.53;26.10;;;5.00;99.90;;;;;;5034304;28;20509;-54
2020/12/07 00:17:40;;;;;;;49.80;26.20;;;5.20;99.90;;;;;;5035696;28;20211;-57
2020/12/07 00:20:09;;;;;;;48.27;26.13;;;5.30;99.90;;;;;;5038652;28;20183;-57
2020/12/07 00:22:35;;;;;;;47.57;26.80;;;5.30;99.90;;;;;;5036087;28;20203;-59
2020/12/07 00:25:02;;;;;;;46.37;26.20;;;5.40;99.90;;;;;;5035612;28;20176;-56
2020/12/07 00:27:30;;;;;;;52.00;27.43;;;5.60;99.90;;;;;;5036747;28;20200;-53
2020/12/07 00:29:56;;;;;;;49.37;26.60;;;5.60;99.90;;;;;;5035582;28;20208;-59
2020/12/07 00:32:23;;;;;;;51.87;28.63;;;5.70;99.90;;;;;;5035972;28;20203;-59
2020/12/07 00:34:49;;;;;;;45.27;26.40;;;5.70;99.90;;;;;;5036601;28;20214;-58
2020/12/07 00:37:16;;;;;;;49.33;27.57;;;5.70;99.90;;;;;;5036794;28;20239;-52
2020/12/07 00:39:41;;;;;;;46.97;26.83;;;5.70;99.90;;;;;;5036120;28;20168;-52
2020/12/07 00:42:10;;;;;;;58.27;29.10;;;5.80;99.90;;;;;;5034967;28;20306;-52
2020/12/07 00:44:37;;;;;;;47.87;26.83;;;5.80;99.90;;;;;;5035865;28;20603;-54
2020/12/07 00:47:03;;;;;;;49.57;26.63;;;5.80;99.90;;;;;;5036545;28;20252;-57
2020/12/07 00:49:29;;;;;;;50.27;27.70;;;5.90;99.90;;;;;;5036127;28;20183;-52
2020/12/07 00:51:54;;;;;;;49.37;26.47;;;5.90;99.90;;;;;;5037109;28;20649;-56
2020/12/07 00:54:22;;;;;;;52.70;28.40;;;6.00;99.90;;;;;;5035844;28;20186;-57
2020/12/07 00:56:52;;;;;;;54.77;27.73;;;6.10;99.90;;;;;;5036476;28;20246;-57
2020/12/07 00:59:18;;;;;;;55.33;29.13;;;6.00;99.90;;;;;;5035550;28;20167;-52
2020/12/07 01:01:43;;;;;;;52.90;28.17;;;5.80;99.90;;;;;;5036567;28;20234;-58
2020/12/07 01:04:09;;;;;;;50.50;26.30;;;5.60;99.90;;;;;;5037325;28;20172;-53
2020/12/07 01:06:34;;;;;;;48.87;25.47;;;5.50;99.90;;;;;;5036462;28;20210;-54
2020/12/07 01:09:00;;;;;;;46.80;25.80;;;5.60;99.90;;;;;;5035262;28;20215;-52
2020/12/07 01:11:26;;;;;;;53.87;27.47;;;5.60;99.90;;;;;;5035447;28;20222;-51
2020/12/07 01:13:51;;;;;;;49.73;27.50;;;5.60;99.90;;;;;;5036955;28;20176;-53
2020/12/07 01:16:21;;;;;;;48.80;26.00;;;5.60;99.90;;;;;;5034274;28;20638;-56
2020/12/07 01:18:47;;;;;;;48.50;27.27;;;5.70;99.90;;;;;;5037507;28;20300;-53
2020/12/07 01:21:14;;;;;;;52.80;28.70;;;5.60;99.90;;;;;;5034735;28;20172;-55
2020/12/07 01:23:40;;;;;;;45.13;25.70;;;5.50;99.90;;;;;;5034521;28;20217;-55
2020/12/07 01:26:08;;;;;;;48.83;27.47;;;5.60;99.90;;;;;;5036466;28;20182;-52
2020/12/07 01:28:33;;;;;;;51.20;28.50;;;5.50;99.90;;;;;;5036483;28;20168;-55
2020/12/07 01:30:59;;;;;;;50.37;27.03;;;5.30;99.90;;;;;;5035116;28;20186;-54
2020/12/07 01:33:24;;;;;;;46.07;25.03;;;5.00;99.90;;;;;;5034599;28;20178;-52
2020/12/07 01:35:50;;;;;;;45.20;26.27;;;4.90;99.90;;;;;;5034341;28;20167;-56
2020/12/07 01:38:15;;;;;;;46.40;26.80;;;4.90;99.90;;;;;;5034904;28;20261;-55
2020/12/07 01:40:41;;;;;;;43.20;25.40;;;4.80;99.90;;;;;;5035020;28;20221;-55
2020/12/07 01:43:06;;;;;;;47.20;26.13;;;4.80;99.90;;;;;;5035321;28;20639;-52
2020/12/07 01:45:32;;;;;;;45.00;25.60;;;4.80;99.90;;;;;;5034680;28;20176;-53
2020/12/07 01:47:57;;;;;;;52.87;27.57;;;4.80;99.90;;;;;;5036041;28;20647;-58
2020/12/07 01:50:23;;;;;;;45.73;25.40;;;4.70;99.90;;;;;;5035104;28;20520;-53
2020/12/07 01:52:48;;;;;;;52.00;28.53;;;4.70;99.90;;;;;;5034459;28;20183;-52
2020/12/07 01:55:14;;;;;;;64.13;30.07;;;4.70;99.90;;;;;;5035459;28;20272;-52
2020/12/07 01:57:40;;;;;;;57.07;28.60;;;4.80;99.90;;;;;;5037253;28;20214;-55
2020/12/07 02:00:06;;;;;;;50.57;25.67;;;4.80;99.90;;;;;;5037747;28;20163;-53
2020/12/07 02:02:33;;;;;;;46.90;26.13;;;4.90;99.90;;;;;;5035395;28;20627;-57
2020/12/07 02:04:59;;;;;;;52.60;26.20;;;5.00;99.90;;;;;;5034849;28;20175;-56
2020/12/07 02:07:24;;;;;;;43.70;25.20;;;5.10;99.90;;;;;;5035524;28;20246;-53
2020/12/07 02:09:50;;;;;;;47.70;26.27;;;5.20;99.90;;;;;;5035275;28;20212;-59
2020/12/07 02:12:15;;;;;;;43.20;24.17;;;5.30;99.90;;;;;;5034433;28;20258;-58
2020/12/07 02:14:41;;;;;;;47.27;25.30;;;5.30;99.90;;;;;;5033976;28;20172;-55
2020/12/07 02:17:06;;;;;;;50.23;27.13;;;5.30;99.90;;;;;;5035528;28;20647;-51
2020/12/07 02:19:33;;;;;;;45.43;25.77;;;5.20;99.90;;;;;;5034995;28;20172;-57
2020/12/07 02:21:58;;;;;;;49.43;25.97;;;5.10;99.90;;;;;;5034402;28;20262;-58
2020/12/07 02:24:24;;;;;;;58.03;27.80;;;5.10;99.90;;;;;;5034373;28;20254;-54
2020/12/07 02:26:50;;;;;;;57.17;29.17;;;5.20;99.90;;;;;;5035574;28;20191;-52
2020/12/07 02:29:15;;;;;;;53.73;27.20;;;5.20;99.90;;;;;;5033826;28;20171;-54
2020/12/07 02:31:41;;;;;;;58.00;28.80;;;5.20;99.90;;;;;;5034944;28;20175;-57
2020/12/07 02:34:06;;;;;;;54.77;27.27;;;5.10;99.90;;;;;;5035141;28;20182;-53
2020/12/07 02:36:32;;;;;;;58.17;27.67;;;5.10;99.90;;;;;;5035404;28;20204;-51
2020/12/07 02:38:57;;;;;;;63.03;30.17;;;5.20;99.90;;;;;;5034374;28;20180;-58
2020/12/07 02:41:23;;;;;;;80.17;33.07;;;5.20;99.90;;;;;;5033748;28;20164;-52
2020/12/07 02:43:49;;;;;;;59.33;28.70;;;5.20;99.90;;;;;;5036678;28;20168;-56
2020/12/07 02:46:14;;;;;;;61.50;28.33;;;5.20;99.90;;;;;;5034248;28;20179;-54
2020/12/07 02:48:40;;;;;;;71.27;32.37;;;5.80;99.90;;;;;;5035454;28;20179;-54
2020/12/07 02:51:06;;;;;;;65.50;30.67;;;5.00;99.90;;;;;;5033751;28;20303;-52
2020/12/07 02:53:32;;;;;;;85.70;33.57;;;4.80;99.90;;;;;;5034175;28;20199;-57
2020/12/07 02:55:57;;;;;;;65.47;30.27;;;4.80;99.90;;;;;;5033186;28;20218;-55
2020/12/07 02:58:23;;;;;;;88.97;35.20;;;4.70;99.90;;;;;;5033541;28;20235;-52
2020/12/07 03:00:48;;;;;;;68.77;31.37;;;4.70;99.90;;;;;;5034044;28;20179;-52
2020/12/07 03:03:14;;;;;;;83.63;34.30;;;4.50;99.90;;;;;;5033919;28;20172;-56
2020/12/07 03:05:39;;;;;;;102.53;39.63;;;4.50;99.90;;;;;;5033785;28;20179;-55
2020/12/07 03:08:05;;;;;;;84.40;34.33;;;4.40;99.90;;;;;;5038401;28;20211;-52
2020/12/07 03:10:30;;;;;;;67.70;30.23;;;4.40;99.90;;;;;;5037734;28;20180;-52
2020/12/07 03:12:56;;;;;;;74.27;30.40;;;4.60;99.90;;;;;;5038308;28;20570;-58
2020/12/07 03:15:21;;;;;;;82.93;34.90;;;4.70;99.90;;;;;;5037715;28;20576;-53
2020/12/07 03:17:47;;;;;;;75.67;32.63;;;4.80;99.90;;;;;;5037857;28;20222;-59
2020/12/07 03:20:12;;;;;;;72.20;31.50;;;4.90;99.90;;;;;;5037593;28;20175;-58
2020/12/07 03:22:38;;;;;;;70.50;30.70;;;5.00;99.90;;;;;;5038329;28;20495;-51
2020/12/07 03:25:04;;;;;;;74.10;32.13;;;5.10;99.90;;;;;;5037540;28;20627;-54
2020/12/07 03:27:29;;;;;;;71.07;31.17;;;5.10;99.90;;;;;;5036876;28;20225;-51
2020/12/07 03:29:55;;;;;;;70.10;31.97;;;5.20;99.90;;;;;;5039259;28;20176;-55
2020/12/07 03:32:20;;;;;;;73.13;32.47;;;5.30;99.90;;;;;;5036786;28;20203;-54
2020/12/07 03:34:46;;;;;;;74.83;31.27;;;5.40;99.90;;;;;;5037175;28;20222;-59
2020/12/07 03:37:11;;;;;;;72.67;31.40;;;5.40;99.90;;;;;;5037354;28;20239;-52
2020/12/07 03:39:37;;;;;;;66.40;32.23;;;5.40;99.90;;;;;;5037329;28;20188;-52
2020/12/07 03:42:02;;;;;;;68.00;29.93;;;5.50;99.90;;;;;;5036605;28;20172;-52
2020/12/07 03:44:28;;;;;;;66.73;30.97;;;5.50;99.90;;;;;;5037812;28;20208;-56
2020/12/07 03:46:54;;;;;;;67.27;30.03;;;5.40;99.90;;;;;;5038131;28;20195;-51
2020/12/07 03:49:19;;;;;;;71.07;31.23;;;5.40;99.90;;;;;;5036576;28;20180;-51
2020/12/07 03:51:45;;;;;;;68.07;31.03;;;5.40;99.90;;;;;;5037956;28;20175;-58
2020/12/07 03:54:10;;;;;;;72.97;30.90;;;5.30;99.90;;;;;;5038296;28;20207;-56
2020/12/07 03:56:36;;;;;;;74.00;31.27;;;5.30;99.90;;;;;;5037093;28;20208;-51
2020/12/07 03:59:01;;;;;;;68.47;30.80;;;5.30;99.90;;;;;;5037546;28;20211;-54
2020/12/07 04:01:27;;;;;;;69.47;31.70;;;5.20;99.90;;;;;;5037771;28;20171;-55
2020/12/07 04:03:57;;;;;;;77.77;32.40;;;5.30;99.90;;;;;;5037530;28;20176;-56
2020/12/07 04:06:30;;;;;;;87.97;35.17;;;5.30;99.90;;;;;;5036899;28;20569;-58
2020/12/07 04:08:55;;;;;;;84.20;33.07;;;5.40;99.90;;;;;;5036622;28;20191;-54
2020/12/07 04:11:21;;;;;;;63.77;29.80;;;5.40;99.90;;;;;;5036508;28;20191;-59
2020/12/07 04:13:47;;;;;;;84.47;33.53;;;5.50;99.90;;;;;;5037716;28;20186;-55
2020/12/07 04:16:12;;;;;;;79.13;32.57;;;5.50;99.90;;;;;;5035300;28;20263;-55
2020/12/07 04:18:38;;;;;;;73.90;31.13;;;5.40;99.90;;;;;;5036109;28;20594;-53
2020/12/07 04:21:04;;;;;;;103.77;38.20;;;5.20;99.90;;;;;;5037805;28;20222;-57
2020/12/07 04:23:31;;;;;;;83.23;33.23;;;5.10;99.90;;;;;;5035666;28;20575;-55
2020/12/07 04:25:57;;;;;;;85.47;33.77;;;5.00;99.90;;;;;;5036314;28;20183;-51
2020/12/07 04:28:22;;;;;;;89.73;36.20;;;5.00;99.90;;;;;;5037516;28;20192;-53
2020/12/07 04:30:49;;;;;;;92.63;38.63;;;5.10;99.90;;;;;;5037671;28;20183;-53
2020/12/07 04:33:15;;;;;;;71.10;31.97;;;5.20;99.90;;;;;;5043082;28;20187;-52
2020/12/07 04:35:41;;;;;;;78.97;31.17;;;5.30;99.90;;;;;;5056752;28;20244;-57
2020/12/07 04:38:07;;;;;;;74.83;30.73;;;5.40;99.90;;;;;;5055899;28;20341;-55
2020/12/07 04:40:34;;;;;;;80.47;32.00;;;5.40;99.90;;;;;;5056427;28;20182;-54
2020/12/07 04:43:00;;;;;;;85.23;33.53;;;5.40;99.90;;;;;;5056366;28;20514;-52
2020/12/07 04:45:25;;;;;;;103.80;38.93;;;5.50;99.90;;;;;;5058106;28;20678;-53
2020/12/07 04:47:52;;;;;;;80.87;33.77;;;5.50;99.90;;;;;;5057801;28;20197;-57
2020/12/07 04:50:19;;;;;;;83.03;33.43;;;5.50;99.90;;;;;;5056301;28;20208;-55
2020/12/07 04:52:45;;;;;;;82.37;33.90;;;5.60;99.90;;;;;;5056272;28;20191;-56
2020/12/07 04:55:10;;;;;;;77.37;33.30;;;5.50;99.90;;;;;;5048785;28;20535;-56
2020/12/07 04:57:37;;;;;;;74.67;33.17;;;5.60;99.90;;;;;;5047545;28;20203;-56
2020/12/07 05:00:05;;;;;;;80.13;32.23;;;5.70;99.90;;;;;;5048190;28;20254;-51
2020/12/07 05:02:30;;;;;;;75.70;33.43;;;5.80;99.90;;;;;;5049935;28;20182;-53
2020/12/07 05:04:56;;;;;;;73.83;32.63;;;5.90;99.90;;;;;;5046947;28;20202;-54
2020/12/07 05:07:22;;;;;;;89.80;35.77;;;5.90;99.90;;;;;;5055822;28;20654;-55
2020/12/07 05:09:48;;;;;;;78.40;34.03;;;5.90;99.90;;;;;;5057914;28;20201;-57
2020/12/07 05:12:23;;;;;;;80.30;34.40;;;5.90;99.90;;;;;;5071309;28;20667;-59
2020/12/07 05:14:49;;;;;;;74.23;32.60;;;5.90;99.90;;;;;;5057470;28;20259;-58
2020/12/07 05:17:15;;;;;;;73.67;29.97;;;5.80;99.90;;;;;;5072549;28;20241;-57
2020/12/07 05:19:43;;;;;;;73.00;31.17;;;5.80;99.90;;;;;;5059163;28;20179;-55
2020/12/07 05:22:18;;;;;;;78.87;33.67;;;5.70;99.90;;;;;;5067105;28;20197;-57
2020/12/07 05:24:51;;;;;;;77.07;32.40;;;5.70;99.90;;;;;;5061397;28;20170;-58
2020/12/07 05:27:18;;;;;;;78.13;31.97;;;5.80;99.90;;;;;;5063236;28;20757;-59
2020/12/07 05:32:37;;;;;;;70.17;30.10;;;6.10;99.90;;;;;;5047562;28;20193;-58
2020/12/07 05:35:05;;;;;;;69.43;31.17;;;6.10;99.90;;;;;;5073340;28;20206;-58
2020/12/07 05:37:32;;;;;;;65.07;30.80;;;6.10;99.90;;;;;;5073505;28;20214;-51
2020/12/07 05:40:01;;;;;;;64.87;30.13;;;6.20;99.90;;;;;;5074923;28;20178;-58
2020/12/07 05:42:28;;;;;;;66.53;29.80;;;6.20;99.90;;;;;;5073910;28;20572;-53
2020/12/07 05:44:56;;;;;;;67.37;29.73;;;6.20;99.90;;;;;;5075396;28;20228;-52
2020/12/07 05:47:23;;;;;;;62.50;28.03;;;6.00;99.90;;;;;;5074868;28;20269;-55
2020/12/07 05:49:51;;;;;;;67.73;29.57;;;5.90;99.90;;;;;;5073861;28;20208;-58
2020/12/07 05:52:34;;;;;;;58.67;27.87;;;5.80;99.90;;;;;;5075026;28;20177;-58
2020/12/07 05:55:01;;;;;;;63.67;29.07;;;5.80;99.90;;;;;;5074596;28;20159;-51
2020/12/07 05:57:30;;;;;;;66.50;30.17;;;5.90;99.90;;;;;;5074217;28;20216;-51
2020/12/07 06:00:00;;;;;;;63.50;30.30;;;6.00;99.90;;;;;;5075316;28;20175;-57
2020/12/07 06:02:27;;;;;;;58.90;28.07;;;6.10;99.90;;;;;;5075137;28;20514;-52
2020/12/07 06:04:53;;;;;;;58.93;28.50;;;6.10;99.90;;;;;;5074669;28;20216;-58
2020/12/07 06:07:24;;;;;;;58.63;27.27;;;6.20;99.90;;;;;;5074939;28;20198;-56
2020/12/07 06:09:50;;;;;;;60.07;28.07;;;6.20;99.90;;;;;;5075294;28;20183;-53
2020/12/07 06:12:21;;;;;;;59.60;27.33;;;6.00;99.90;;;;;;5049399;28;20227;-54
2020/12/07 06:14:47;;;;;;;63.37;27.90;;;6.00;99.90;;;;;;5049308;28;20187;-51
2020/12/07 06:17:24;;;;;;;60.03;27.90;;;6.00;99.90;;;;;;5040728;28;20739;-50
2020/12/07 06:19:51;;;;;;;59.00;28.70;;;6.00;99.90;;;;;;5036615;28;20332;-52
2020/12/07 06:22:20;;;;;;;61.70;29.17;;;6.00;99.90;;;;;;5050063;28;20198;-52
2020/12/07 06:24:46;;;;;;;62.33;30.10;;;6.00;99.90;;;;;;5035700;28;20190;-51
2020/12/07 06:27:13;;;;;;;57.17;28.30;;;6.10;99.90;;;;;;5035178;28;20278;-52
2020/12/07 06:29:54;;;;;;;54.43;26.53;;;6.20;99.90;;;;;;5033651;28;20266;-57
2020/12/07 06:32:20;;;;;;;56.07;26.40;;;6.20;99.90;;;;;;5039085;28;20522;-52
2020/12/07 06:34:50;;;;;;;55.37;27.23;;;6.30;99.90;;;;;;5052005;28;20639;-58
2020/12/07 06:37:16;;;;;;;59.83;28.03;;;6.40;99.90;;;;;;5052496;28;20213;-59
2020/12/07 06:39:46;;;;;;;59.27;27.80;;;6.50;99.90;;;;;;5052526;28;20266;-56
2020/12/07 06:42:15;;;;;;;59.07;27.63;;;6.50;99.90;;;;;;5050065;28;20175;-57
2020/12/07 06:44:45;;;;;;;60.50;28.63;;;6.50;99.90;;;;;;5051981;28;20179;-58
2020/12/07 06:47:18;;;;;;;54.20;26.80;;;6.40;99.90;;;;;;5037531;28;20191;-52
2020/12/07 06:52:19;;;;;;;60.90;28.80;;;6.40;99.90;;;;;;5058070;28;20195;-57
2020/12/07 06:55:08;;;;;;;55.60;26.83;;;6.30;99.90;;;;;;5057680;28;20187;-52
2020/12/07 06:57:49;;;;;;;52.30;26.90;;;6.10;99.90;;;;;;5049689;28;20212;-55
2020/12/07 07:00:21;;;;;;;55.87;27.30;;;6.10;99.90;;;;;;5040698;28;20226;-53
2020/12/07 07:02:49;;;;;;;53.17;27.63;;;6.10;99.90;;;;;;5057823;28;20183;-58
2020/12/07 07:05:16;;;;;;;59.10;29.27;;;6.00;99.90;;;;;;5055341;28;20680;-57
2020/12/07 07:07:42;;;;;;;58.57;27.97;;;6.00;99.90;;;;;;5044899;28;20207;-51
2020/12/07 07:10:10;;;;;;;57.60;27.10;;;6.10;99.90;;;;;;5038640;28;20238;-51
2020/12/07 07:12:37;;;;;;;55.73;27.20;;;6.10;99.90;;;;;;5037211;28;20543;-54
2020/12/07 07:15:04;;;;;;;55.17;26.37;;;6.10;99.90;;;;;;5040200;28;20187;-55
2020/12/07 07:17:32;;;;;;;54.70;26.63;;;6.10;99.90;;;;;;5054570;28;20206;-57
2020/12/07 07:20:01;;;;;;;54.50;27.53;;;6.00;99.90;;;;;;5048727;28;20189;-58
2020/12/07 07:22:27;;;;;;;57.33;30.90;;;5.90;99.90;;;;;;5037382;28;20401;-55
2020/12/07 07:30:15;;;;;;;49.90;26.87;;;6.10;99.90;;;;;;5038153;28;20175;-57
2020/12/07 07:32:43;;;;;;;49.17;25.87;;;6.20;99.90;;;;;;5037176;28;20283;-59
2020/12/07 07:35:13;;;;;;;48.83;24.67;;;6.30;99.90;;;;;;5037630;28;20191;-60
2020/12/07 07:37:40;;;;;;;55.20;25.60;;;6.40;99.90;;;;;;5037666;28;20298;-56
2020/12/07 07:40:20;;;;;;;51.63;26.10;;;6.40;99.90;;;;;;5036722;28;20516;-60
2020/12/07 07:43:04;;;;;;;48.13;24.53;;;6.50;99.90;;;;;;5036429;28;20210;-53
2020/12/07 07:45:38;;;;;;;59.30;27.37;;;6.60;99.90;;;;;;5037826;28;20168;-56
2020/12/07 07:53:59;;;;;;;51.13;25.30;;;6.50;99.90;;;;;;5035794;28;20203;-56
2020/12/07 08:15:14;;;;;;;50.93;25.03;;;6.40;99.90;;;;;;5036789;28;20198;-53
2020/12/07 08:15:44;;;;;;;46.83;23.93;;;6.30;99.90;;;;;;5034115;28;20214;-54
2020/12/07 08:18:09;;;;;;;44.67;23.37;;;6.30;99.90;;;;;;5036558;28;20246;-59
2020/12/07 08:20:38;;;;;;;44.67;23.53;;;6.30;99.90;;;;;;5037187;28;20555;-57
2020/12/07 08:23:08;;;;;;;48.33;22.57;;;6.20;99.90;;;;;;5036445;28;20180;-56
2020/12/07 08:25:39;;;;;;;47.27;23.90;;;6.30;99.90;;;;;;5035845;28;20172;-54
2020/12/07 08:28:26;;;;;;;46.37;23.37;;;6.40;99.90;;;;;;5036610;28;20192;-57
2020/12/07 08:30:58;;;;;;;45.40;23.37;;;6.50;99.90;;;;;;5035629;28;20714;-55
2020/12/07 08:33:24;;;;;;;50.00;24.67;;;6.60;99.90;;;;;;5037576;28;20229;-52
2020/12/07 08:35:50;;;;;;;46.47;25.23;;;6.70;99.90;;;;;;5036504;28;20175;-56
2020/12/07 08:38:38;;;;;;;45.27;24.10;;;6.80;99.90;;;;;;5036218;28;20564;-59
2020/12/07 08:41:07;;;;;;;47.13;23.00;;;6.80;99.90;;;;;;5036698;28;20180;-55
2020/12/07 08:43:34;;;;;;;39.93;21.90;;;6.80;99.90;;;;;;5036254;28;20167;-53
2020/12/07 08:45:59;;;;;;;42.97;21.97;;;6.90;99.90;;;;;;5036521;28;20199;-59
2020/12/07 08:48:25;;;;;;;37.13;20.63;;;7.00;99.90;;;;;;5035875;28;20195;-60
2020/12/07 08:50:54;;;;;;;41.83;22.33;;;7.10;99.90;;;;;;5036575;28;20172;-55
2020/12/07 08:53:20;;;;;;;40.47;21.17;;;7.20;99.90;;;;;;5036526;28;20180;-56
2020/12/07 08:55:45;;;;;;;38.13;20.47;;;7.20;99.90;;;;;;5037792;28;20192;-55
2020/12/07 08:58:12;;;;;;;40.60;23.60;;;7.30;99.90;;;;;;5037651;28;20516;-60
2020/12/07 09:00:38;;;;;;;44.80;24.43;;;7.30;99.90;;;;;;5035423;28;20180;-52
2020/12/07 09:03:03;;;;;;;41.37;22.47;;;7.30;99.90;;;;;;5035667;28;20222;-57
2020/12/07 09:05:29;;;;;;;40.30;22.53;;;7.20;99.90;;;;;;5034940;28;20206;-60
2020/12/07 09:07:54;;;;;;;33.67;19.53;;;7.00;99.90;;;;;;5056122;28;20241;-55
2020/12/07 09:10:20;;;;;;;37.03;20.27;;;7.00;99.90;;;;;;5055857;28;20175;-57
2020/12/07 09:12:45;;;;;;;37.30;20.53;;;7.10;99.90;;;;;;5056950;28;20200;-57
2020/12/07 09:15:11;;;;;;;37.30;20.23;;;7.10;99.90;;;;;;5034359;28;20190;-56
2020/12/07 09:17:36;;;;;;;35.67;20.57;;;7.20;99.90;;;;;;5054475;28;20744;-56
2020/12/07 09:20:03;;;;;;;37.27;21.43;;;7.30;99.90;;;;;;5056002;28;20216;-60
2020/12/07 09:22:28;;;;;;;36.00;19.47;;;7.40;99.90;;;;;;5056431;28;20733;-57
2020/12/07 09:24:54;;;;;;;34.53;18.67;;;7.40;99.90;;;;;;5057263;28;20205;-60
2020/12/07 09:27:19;;;;;;;29.43;17.77;;;7.50;99.90;;;;;;5055683;28;20297;-57
2020/12/07 09:29:45;;;;;;;29.87;17.67;;;7.40;99.90;;;;;;5056706;28;20198;-54
2020/12/07 09:32:10;;;;;;;32.37;17.97;;;7.40;99.90;;;;;;5055882;28;20542;-53
2020/12/07 09:34:37;;;;;;;26.97;16.17;;;7.50;99.90;;;;;;5055415;28;20258;-53
2020/12/07 09:37:03;;;;;;;28.87;17.23;;;7.50;99.90;;;;;;5055841;28;20211;-55
2020/12/07 09:39:29;;;;;;;28.43;17.53;;;7.50;99.90;;;;;;5055723;28;20181;-56
2020/12/07 09:41:55;;;;;;;28.17;17.10;;;7.40;99.90;;;;;;5056311;28;20215;-54
2020/12/07 09:44:21;;;;;;;29.60;17.00;;;7.40;99.90;;;;;;5055007;28;20614;-59
2020/12/07 09:46:46;;;;;;;26.60;16.13;;;7.40;99.90;;;;;;5055619;28;20424;-52
2020/12/07 09:49:12;;;;;;;23.60;14.87;;;7.40;99.90;;;;;;5055198;28;20187;-59
2020/12/07 09:51:37;;;;;;;25.00;14.70;;;7.30;99.90;;;;;;5055330;28;20190;-57
2020/12/07 09:54:03;;;;;;;21.63;13.27;;;7.20;99.90;;;;;;5055058;28;20535;-58
2020/12/07 09:56:29;;;;;;;23.97;15.23;;;7.10;99.90;;;;;;5054338;28;20209;-52
2020/12/07 09:58:56;;;;;;;24.63;15.93;;;7.00;99.90;;;;;;5053806;28;20634;-59
2020/12/07 10:01:21;;;;;;;36.67;24.17;;;7.00;99.90;;;;;;5055262;28;20224;-52
2020/12/07 10:03:47;;;;;;;36.43;22.63;;;7.00;99.90;;;;;;5056069;28;20589;-57
2020/12/07 10:06:13;;;;;;;22.23;15.57;;;7.00;99.90;;;;;;5055100;28;20535;-60
2020/12/07 10:08:38;;;;;;;24.47;15.20;;;7.00;99.90;;;;;;5055738;28;20201;-53
2020/12/07 10:11:03;;;;;;;21.50;14.47;;;7.00;99.90;;;;;;5054359;28;20554;-56
2020/12/07 10:13:29;;;;;;;21.80;14.67;;;7.00;99.90;;;;;;5053888;28;20672;-59
2020/12/07 10:15:55;;;;;;;23.50;15.57;;;7.00;99.90;;;;;;5053408;28;20630;-55
2020/12/07 10:18:20;;;;;;;21.37;13.47;;;7.10;99.90;;;;;;5054364;28;20206;-60
2020/12/07 10:20:46;;;;;;;20.33;13.43;;;7.20;99.90;;;;;;5054554;28;20171;-56
2020/12/07 10:23:12;;;;;;;20.97;13.00;;;7.20;99.90;;;;;;5055451;28;20265;-53
2020/12/07 10:25:38;;;;;;;17.80;11.97;;;7.30;99.90;;;;;;5054857;28;20183;-56
2020/12/07 10:28:04;;;;;;;19.60;12.67;;;7.40;99.90;;;;;;5055155;28;20206;-58
2020/12/07 10:30:29;;;;;;;17.77;12.10;;;7.40;99.90;;;;;;5053884;28;20187;-59
2020/12/07 10:32:55;;;;;;;17.53;12.80;;;7.40;99.90;;;;;;5054406;28;20322;-56
2020/12/07 10:35:21;;;;;;;14.63;10.17;;;7.50;99.90;;;;;;5053967;28;20179;-57
2020/12/07 10:37:46;;;;;;;15.90;10.87;;;7.60;99.90;;;;;;5054614;28;20206;-52
2020/12/07 10:40:12;;;;;;;15.53;10.70;;;7.60;99.90;;;;;;5054576;28;20240;-53
2020/12/07 10:42:37;;;;;;;18.77;12.27;;;7.60;99.90;;;;;;5053400;28;20282;-52
2020/12/07 10:45:04;;;;;;;19.90;12.90;;;7.60;99.90;;;;;;5054534;28;20270;-61
2020/12/07 10:47:29;;;;;;;17.50;12.03;;;7.50;99.90;;;;;;5056609;28;20677;-55
2020/12/07 10:49:55;;;;;;;20.13;12.97;;;7.60;99.90;;;;;;5053145;28;20531;-57
2020/12/07 10:52:21;;;;;;;19.87;12.63;;;7.60;99.90;;;;;;5054219;28;20179;-61
2020/12/07 10:54:47;;;;;;;19.00;12.77;;;7.60;99.90;;;;;;5054514;28;20646;-60
2020/12/07 10:57:12;;;;;;;18.53;12.53;;;7.50;99.90;;;;;;5037608;28;20214;-58
2020/12/07 10:59:38;;;;;;;18.27;12.37;;;7.50;99.90;;;;;;5054695;28;20671;-56
2020/12/07 11:02:04;;;;;;;17.83;12.13;;;7.50;99.90;;;;;;5054140;28;20205;-55
2020/12/07 11:04:30;;;;;;;18.33;12.40;;;7.40;99.90;;;;;;5054340;28;20186;-53
2020/12/07 11:06:57;;;;;;;17.40;11.83;;;7.40;99.90;;;;;;5054362;28;20286;-59
2020/12/07 11:09:24;;;;;;;15.93;11.13;;;7.40;99.90;;;;;;5055922;28;20186;-58
2020/12/07 11:11:53;;;;;;;15.63;10.60;;;7.30;99.90;;;;;;5054106;28;20194;-58
2020/12/07 11:14:19;;;;;;;16.30;11.50;;;7.30;99.90;;;;;;5053919;28;20175;-57
2020/12/07 11:16:45;;;;;;;15.40;10.87;;;7.30;99.90;;;;;;5053596;28;20203;-59
2020/12/07 11:19:10;;;;;;;13.97;10.30;;;7.40;99.90;;;;;;5054240;28;20183;-53
2020/12/07 11:21:36;;;;;;;13.37;10.30;;;7.50;99.90;;;;;;5055391;28;20168;-53
2020/12/07 11:24:01;;;;;;;14.50;10.40;;;7.60;99.90;;;;;;5054344;28;20175;-57
2020/12/07 11:26:27;;;;;;;15.20;10.93;;;7.70;99.90;;;;;;5055769;28;21481;-59
2020/12/07 11:28:52;;;;;;;13.90;10.87;;;7.80;99.90;;;;;;5058714;28;20177;-52
2020/12/07 11:31:18;;;;;;;13.77;10.70;;;7.90;99.90;;;;;;5058236;28;20488;-60
2020/12/07 11:33:44;;;;;;;16.77;11.30;;;8.00;99.90;;;;;;5058166;28;20254;-52
2020/12/07 11:36:10;;;;;;;15.27;11.33;;;8.10;99.90;;;;;;5057871;28;20185;-54
2020/12/07 11:38:41;;;;;;;14.63;10.33;;;8.10;99.90;;;;;;5056804;28;20211;-55
2020/12/07 11:44:08;;;;;;;12.43;9.37;;;8.20;99.90;;;;;;5038587;28;20175;-52
2020/12/07 11:49:22;;;;;;;25.37;19.40;;;8.10;99.90;;;;;;4975898;28;20233;-55
2020/12/07 11:51:48;;;;;;;17.10;12.33;;;8.10;99.90;;;;;;4977179;28;20182;-55
2020/12/07 11:54:14;;;;;;;12.87;9.67;;;8.00;99.90;;;;;;4975759;28;20188;-51
2020/12/07 11:56:40;;;;;;;14.30;11.07;;;7.90;99.90;;;;;;4976242;28;20204;-55
2020/12/07 11:59:09;;;;;;;16.10;12.83;;;7.80;99.90;;;;;;4976131;28;20261;-57
2020/12/07 12:01:36;;;;;;;18.87;14.20;;;7.80;99.90;;;;;;4976348;28;20566;-54
2020/12/07 12:04:03;;;;;;;13.77;10.13;;;7.70;99.90;;;;;;4976881;28;20504;-56
2020/12/07 12:06:34;;;;;;;13.27;10.43;;;7.60;99.90;;;;;;4976130;28;20586;-56
2020/12/07 12:09:03;;;;;;;13.17;10.90;;;7.30;99.90;;;;;;4976242;28;20178;-56
2020/12/07 12:11:31;;;;;;;12.83;9.60;;;7.30;99.90;;;;;;4976075;28;20604;-52
2020/12/07 12:13:58;;;;;;;11.80;9.00;;;7.40;99.90;;;;;;4977559;28;20185;-57
2020/12/07 12:16:24;;;;;;;12.10;9.40;;;7.60;99.90;;;;;;4976118;28;20182;-52
2020/12/07 12:18:57;;;;;;;13.53;9.03;;;7.70;99.90;;;;;;4974715;28;20578;-56
2020/12/07 12:21:24;;;;;;;12.93;9.30;;;7.90;99.90;;;;;;4977153;28;20170;-56
2020/12/07 12:23:50;;;;;;;14.50;10.53;;;8.00;99.90;;;;;;4976949;28;20173;-60
2020/12/07 12:26:18;;;;;;;13.33;10.47;;;8.10;99.90;;;;;;5005624;28;20202;-57
2020/12/07 12:28:43;;;;;;;14.07;10.57;;;8.00;99.90;;;;;;5037861;28;20187;-59
2020/12/07 12:31:10;;;;;;;11.60;8.93;;;7.80;99.90;;;;;;5037201;28;20176;-60
2020/12/07 12:33:35;;;;;;;11.80;9.37;;;7.80;99.90;;;;;;5036412;28;20179;-54
2020/12/07 12:36:01;;;;;;;12.53;9.60;;;7.90;99.90;;;;;;5036573;28;20171;-53
2020/12/07 12:38:27;;;;;;;12.20;9.67;;;7.60;99.90;;;;;;5037119;28;20247;-52
2020/12/07 12:40:53;;;;;;;21.90;16.80;;;7.40;99.90;;;;;;5036574;28;20179;-52
2020/12/07 12:43:18;;;;;;;20.67;17.53;;;7.40;99.90;;;;;;5035905;28;20172;-56
2020/12/07 12:45:44;;;;;;;15.17;11.67;;;7.50;99.90;;;;;;5036720;28;20172;-59
2020/12/07 12:48:10;;;;;;;14.10;10.27;;;7.70;99.90;;;;;;5036663;28;20199;-60
2020/12/07 12:50:35;;;;;;;13.90;9.97;;;7.80;99.90;;;;;;5037295;28;20171;-53
2020/12/07 12:53:01;;;;;;;13.87;9.73;;;7.70;99.90;;;;;;5036405;28;20175;-54
2020/12/07 12:55:26;;;;;;;12.07;9.47;;;7.70;99.90;;;;;;5036462;28;20182;-55
2020/12/07 12:57:52;;;;;;;14.67;9.93;;;7.80;99.90;;;;;;5036765;28;20226;-58
2020/12/07 13:00:17;;;;;;;12.07;8.97;;;7.90;99.90;;;;;;5037343;28;20179;-60
2020/12/07 13:02:43;;;;;;;12.20;9.17;;;8.00;99.90;;;;;;5036513;28;20194;-59
2020/12/07 13:05:09;;;;;;;10.50;8.57;;;8.10;99.90;;;;;;5037160;28;20179;-60
2020/12/07 13:07:34;;;;;;;12.80;9.17;;;8.20;99.90;;;;;;5035843;28;20232;-60
2020/12/07 13:10:00;;;;;;;13.37;9.83;;;8.30;99.90;;;;;;5037065;28;20551;-54
2020/12/07 13:12:25;;;;;;;12.13;8.97;;;8.30;99.90;;;;;;5035963;28;20589;-59
2020/12/07 13:14:51;;;;;;;11.03;8.80;;;8.30;99.90;;;;;;5036433;28;20198;-54